sensor_id;sensor_type;location;lat;lon;timestamp;P1;durP1;ratioP1;P2;durP2;ratioP2
17741;SDS011;8993;51.822;-2.268;2022-08-11T00:03:41;3.21;;;0.88;;
17741;SDS011;8993;51.822;-2.268;2022-08-11T00:08:41;4.47;;;0.97;;
17741;SDS011;8993;51.822;-2.268;2022-08-11T00:13:46;4.36;;;1.16;;
17741;SDS011;8993;51.822;-2.268;2022-08-11T00:18:51;4.63;;;1.02;;
17741;SDS011;8993;51.822;-2.268;2022-08-11T00:29:03;2.82;;;0.92;;
17741;SDS011;8993;51.822;-2.268;2022-08-11T00:34:02;5.28;;;0.92;;
17741;SDS011;8993;51.822;-2.268;2022-08-11T00:39:07;5.43;;;1.08;;
17741;SDS011;8993;51.822;-2.268;2022-08-11T00:44:20;5.27;;;1.01;;
17741;SDS011;8993;51.822;-2.268;2022-08-11T00:49:36;3.49;;;0.90;;
17741;SDS011;8993;51.822;-2.268;2022-08-11T00:54:28;4.76;;;1.06;;
17741;SDS011;8993;51.822;-2.268;2022-08-11T00:59:42;3.15;;;1.05;;
17741;SDS011;8993;51.822;-2.268;2022-08-11T01:09:40;4.26;;;1.19;;
17741;SDS011;8993;51.822;-2.268;2022-08-11T01:14:55;3.64;;;1.09;;
17741;SDS011;8993;51.822;-2.268;2022-08-11T01:19:52;5.20;;;1.29;;
17741;SDS011;8993;51.822;-2.268;2022-08-11T01:24:55;6.65;;;1.45;;
17741;SDS011;8993;51.822;-2.268;2022-08-11T01:30:34;3.62;;;1.21;;
17741;SDS011;8993;51.822;-2.268;2022-08-11T01:35:15;3.44;;;1.09;;
17741;SDS011;8993;51.822;-2.268;2022-08-11T01:40:13;2.11;;;1.02;;
17741;SDS011;8993;51.822;-2.268;2022-08-11T01:45:21;4.72;;;1.14;;
17741;SDS011;8993;51.822;-2.268;2022-08-11T01:50:17;3.17;;;1.11;;
17741;SDS011;8993;51.822;-2.268;2022-08-11T01:55:24;4.07;;;0.89;;
17741;SDS011;8993;51.822;-2.268;2022-08-11T02:00:27;4.99;;;1.02;;
17741;SDS011;8993;51.822;-2.268;2022-08-11T02:10:40;2.72;;;0.85;;
17741;SDS011;8993;51.822;-2.268;2022-08-11T02:15:45;2.83;;;1.04;;
17741;SDS011;8993;51.822;-2.268;2022-08-11T02:20:50;4.38;;;1.05;;
17741;SDS011;8993;51.822;-2.268;2022-08-11T02:25:54;4.20;;;1.01;;
17741;SDS011;8993;51.822;-2.268;2022-08-11T02:30:59;3.11;;;1.01;;
17741;SDS011;8993;51.822;-2.268;2022-08-11T02:36:02;6.33;;;1.13;;
17741;SDS011;8993;51.822;-2.268;2022-08-11T02:41:07;5.06;;;1.23;;
17741;SDS011;8993;51.822;-2.268;2022-08-11T02:46:19;4.47;;;1.03;;
17741;SDS011;8993;51.822;-2.268;2022-08-11T02:51:24;3.45;;;1.46;;
17741;SDS011;8993;51.822;-2.268;2022-08-11T02:56:20;4.30;;;1.45;;
17741;SDS011;8993;51.822;-2.268;2022-08-11T03:01:26;5.62;;;1.33;;
17741;SDS011;8993;51.822;-2.268;2022-08-11T03:06:31;4.15;;;1.50;;
17741;SDS011;8993;51.822;-2.268;2022-08-11T03:11:38;6.03;;;1.91;;
17741;SDS011;8993;51.822;-2.268;2022-08-11T03:16:45;6.35;;;1.58;;
17741;SDS011;8993;51.822;-2.268;2022-08-11T03:21:45;3.51;;;1.20;;
17741;SDS011;8993;51.822;-2.268;2022-08-11T03:26:50;4.90;;;1.61;;
17741;SDS011;8993;51.822;-2.268;2022-08-11T03:31:54;4.20;;;1.58;;
17741;SDS011;8993;51.822;-2.268;2022-08-11T03:37:04;5.96;;;1.90;;
17741;SDS011;8993;51.822;-2.268;2022-08-11T03:47:13;5.61;;;1.98;;
17741;SDS011;8993;51.822;-2.268;2022-08-11T03:52:15;4.25;;;1.92;;
17741;SDS011;8993;51.822;-2.268;2022-08-11T03:57:39;4.28;;;1.69;;
17741;SDS011;8993;51.822;-2.268;2022-08-11T04:02:30;2.56;;;1.55;;
17741;SDS011;8993;51.822;-2.268;2022-08-11T04:07:43;3.87;;;1.75;;
17741;SDS011;8993;51.822;-2.268;2022-08-11T04:12:36;4.29;;;1.64;;
17741;SDS011;8993;51.822;-2.268;2022-08-11T04:22:50;5.45;;;1.66;;
17741;SDS011;8993;51.822;-2.268;2022-08-11T04:27:52;5.58;;;1.58;;
17741;SDS011;8993;51.822;-2.268;2022-08-11T04:33:15;4.46;;;1.74;;
17741;SDS011;8993;51.822;-2.268;2022-08-11T04:38:14;4.92;;;2.22;;
17741;SDS011;8993;51.822;-2.268;2022-08-11T04:43:09;4.38;;;1.97;;
17741;SDS011;8993;51.822;-2.268;2022-08-11T04:48:13;4.12;;;1.77;;
17741;SDS011;8993;51.822;-2.268;2022-08-11T04:53:12;3.05;;;1.60;;
17741;SDS011;8993;51.822;-2.268;2022-08-11T04:58:14;3.55;;;1.77;;
17741;SDS011;8993;51.822;-2.268;2022-08-11T05:03:42;4.39;;;1.74;;
17741;SDS011;8993;51.822;-2.268;2022-08-11T05:08:33;5.74;;;1.84;;
17741;SDS011;8993;51.822;-2.268;2022-08-11T05:18:32;5.46;;;2.26;;
17741;SDS011;8993;51.822;-2.268;2022-08-11T05:23:38;5.72;;;2.05;;
17741;SDS011;8993;51.822;-2.268;2022-08-11T05:28:41;6.83;;;2.39;;
17741;SDS011;8993;51.822;-2.268;2022-08-11T05:33:46;4.04;;;1.89;;
17741;SDS011;8993;51.822;-2.268;2022-08-11T05:38:52;5.57;;;1.72;;
17741;SDS011;8993;51.822;-2.268;2022-08-11T05:43:54;6.48;;;2.18;;
17741;SDS011;8993;51.822;-2.268;2022-08-11T05:48:59;6.27;;;2.43;;
17741;SDS011;8993;51.822;-2.268;2022-08-11T05:54:03;8.40;;;2.39;;
17741;SDS011;8993;51.822;-2.268;2022-08-11T05:59:11;6.41;;;2.00;;
17741;SDS011;8993;51.822;-2.268;2022-08-11T06:04:14;8.29;;;2.04;;
17741;SDS011;8993;51.822;-2.268;2022-08-11T06:09:19;7.22;;;2.02;;
17741;SDS011;8993;51.822;-2.268;2022-08-11T06:14:20;7.33;;;2.22;;
17741;SDS011;8993;51.822;-2.268;2022-08-11T06:19:30;10.05;;;2.36;;
17741;SDS011;8993;51.822;-2.268;2022-08-11T06:24:29;7.92;;;2.40;;
17741;SDS011;8993;51.822;-2.268;2022-08-11T06:29:33;8.14;;;1.93;;
17741;SDS011;8993;51.822;-2.268;2022-08-11T06:34:39;9.88;;;2.26;;
17741;SDS011;8993;51.822;-2.268;2022-08-11T06:39:44;5.26;;;1.78;;
17741;SDS011;8993;51.822;-2.268;2022-08-11T06:44:49;10.99;;;2.56;;
17741;SDS011;8993;51.822;-2.268;2022-08-11T06:49:51;7.64;;;1.97;;
17741;SDS011;8993;51.822;-2.268;2022-08-11T07:00:03;10.70;;;2.59;;
17741;SDS011;8993;51.822;-2.268;2022-08-11T07:05:07;11.06;;;2.74;;
17741;SDS011;8993;51.822;-2.268;2022-08-11T07:10:20;16.04;;;3.04;;
17741;SDS011;8993;51.822;-2.268;2022-08-11T07:15:16;9.13;;;2.42;;
17741;SDS011;8993;51.822;-2.268;2022-08-11T07:20:21;11.18;;;2.44;;
17741;SDS011;8993;51.822;-2.268;2022-08-11T07:25:26;9.93;;;2.24;;
17741;SDS011;8993;51.822;-2.268;2022-08-11T07:30:31;9.35;;;2.28;;
17741;SDS011;8993;51.822;-2.268;2022-08-11T07:35:35;9.30;;;2.34;;
17741;SDS011;8993;51.822;-2.268;2022-08-11T07:40:39;10.39;;;2.47;;
17741;SDS011;8993;51.822;-2.268;2022-08-11T07:45:47;8.97;;;2.22;;
17741;SDS011;8993;51.822;-2.268;2022-08-11T07:50:51;11.33;;;2.39;;
17741;SDS011;8993;51.822;-2.268;2022-08-11T07:55:57;10.48;;;2.43;;
17741;SDS011;8993;51.822;-2.268;2022-08-11T08:01:00;8.98;;;2.06;;
17741;SDS011;8993;51.822;-2.268;2022-08-11T08:06:04;6.61;;;1.88;;
17741;SDS011;8993;51.822;-2.268;2022-08-11T08:11:08;8.27;;;1.98;;
17741;SDS011;8993;51.822;-2.268;2022-08-11T08:16:13;6.19;;;2.04;;
17741;SDS011;8993;51.822;-2.268;2022-08-11T08:21:17;5.91;;;1.85;;
17741;SDS011;8993;51.822;-2.268;2022-08-11T08:26:21;8.84;;;2.19;;
17741;SDS011;8993;51.822;-2.268;2022-08-11T08:31:25;8.84;;;1.88;;
17741;SDS011;8993;51.822;-2.268;2022-08-11T08:36:30;8.14;;;2.00;;
17741;SDS011;8993;51.822;-2.268;2022-08-11T08:41:35;10.22;;;1.98;;
17741;SDS011;8993;51.822;-2.268;2022-08-11T08:46:41;10.33;;;1.92;;
17741;SDS011;8993;51.822;-2.268;2022-08-11T08:51:47;7.89;;;1.67;;
17741;SDS011;8993;51.822;-2.268;2022-08-11T08:56:51;6.75;;;1.53;;
17741;SDS011;8993;51.822;-2.268;2022-08-11T09:01:57;11.39;;;1.69;;
17741;SDS011;8993;51.822;-2.268;2022-08-11T09:07:05;7.71;;;1.28;;
17741;SDS011;8993;51.822;-2.268;2022-08-11T09:12:05;10.74;;;1.66;;
17741;SDS011;8993;51.822;-2.268;2022-08-11T09:17:09;7.83;;;1.40;;
17741;SDS011;8993;51.822;-2.268;2022-08-11T09:22:16;12.22;;;1.26;;
17741;SDS011;8993;51.822;-2.268;2022-08-11T09:27:28;6.84;;;1.37;;
17741;SDS011;8993;51.822;-2.268;2022-08-11T09:32:23;7.52;;;1.15;;
17741;SDS011;8993;51.822;-2.268;2022-08-11T09:37:27;6.06;;;1.12;;
17741;SDS011;8993;51.822;-2.268;2022-08-11T09:42:31;7.15;;;1.08;;
17741;SDS011;8993;51.822;-2.268;2022-08-11T09:47:36;7.14;;;1.11;;
17741;SDS011;8993;51.822;-2.268;2022-08-11T09:52:40;6.26;;;1.02;;
17741;SDS011;8993;51.822;-2.268;2022-08-11T09:57:44;6.69;;;0.96;;
17741;SDS011;8993;51.822;-2.268;2022-08-11T10:02:51;7.25;;;1.11;;
17741;SDS011;8993;51.822;-2.268;2022-08-11T10:07:55;5.48;;;0.92;;
17741;SDS011;8993;51.822;-2.268;2022-08-11T10:13:00;4.48;;;0.97;;
17741;SDS011;8993;51.822;-2.268;2022-08-11T10:18:05;2.70;;;0.70;;
17741;SDS011;8993;51.822;-2.268;2022-08-11T10:28:12;5.54;;;0.84;;
17741;SDS011;8993;51.822;-2.268;2022-08-11T10:33:16;3.13;;;0.70;;
17741;SDS011;8993;51.822;-2.268;2022-08-11T10:38:20;2.07;;;0.65;;
17741;SDS011;8993;51.822;-2.268;2022-08-11T10:43:25;4.32;;;0.67;;
17741;SDS011;8993;51.822;-2.268;2022-08-11T10:48:34;2.67;;;0.62;;
17741;SDS011;8993;51.822;-2.268;2022-08-11T10:53:35;3.91;;;0.66;;
17741;SDS011;8993;51.822;-2.268;2022-08-11T10:58:39;4.94;;;0.65;;
17741;SDS011;8993;51.822;-2.268;2022-08-11T11:03:43;3.78;;;0.54;;
17741;SDS011;8993;51.822;-2.268;2022-08-11T11:08:48;2.43;;;0.62;;
17741;SDS011;8993;51.822;-2.268;2022-08-11T11:13:54;3.22;;;0.50;;
17741;SDS011;8993;51.822;-2.268;2022-08-11T11:18:59;2.57;;;0.56;;
17741;SDS011;8993;51.822;-2.268;2022-08-11T11:24:05;7.67;;;0.96;;
17741;SDS011;8993;51.822;-2.268;2022-08-11T11:29:23;2.05;;;0.51;;
17741;SDS011;8993;51.822;-2.268;2022-08-11T11:34:14;3.67;;;0.48;;
17741;SDS011;8993;51.822;-2.268;2022-08-11T11:39:16;2.54;;;0.49;;
17741;SDS011;8993;51.822;-2.268;2022-08-11T11:44:20;2.25;;;0.57;;
17741;SDS011;8993;51.822;-2.268;2022-08-11T11:49:26;1.57;;;0.37;;
17741;SDS011;8993;51.822;-2.268;2022-08-11T11:54:31;1.78;;;0.39;;
17741;SDS011;8993;51.822;-2.268;2022-08-11T11:59:35;2.17;;;0.48;;
17741;SDS011;8993;51.822;-2.268;2022-08-11T12:04:40;2.97;;;0.54;;
17741;SDS011;8993;51.822;-2.268;2022-08-11T12:09:43;2.34;;;0.45;;
17741;SDS011;8993;51.822;-2.268;2022-08-11T12:14:48;1.35;;;0.36;;
17741;SDS011;8993;51.822;-2.268;2022-08-11T12:19:52;1.49;;;0.44;;
17741;SDS011;8993;51.822;-2.268;2022-08-11T12:24:56;2.31;;;0.41;;
17741;SDS011;8993;51.822;-2.268;2022-08-11T12:30:02;1.38;;;0.41;;
17741;SDS011;8993;51.822;-2.268;2022-08-11T12:35:06;3.70;;;0.49;;
17741;SDS011;8993;51.822;-2.268;2022-08-11T12:40:10;0.82;;;0.39;;
17741;SDS011;8993;51.822;-2.268;2022-08-11T12:45:14;4.60;;;0.50;;
17741;SDS011;8993;51.822;-2.268;2022-08-11T12:50:18;2.04;;;0.43;;
17741;SDS011;8993;51.822;-2.268;2022-08-11T12:55:22;2.11;;;0.46;;
17741;SDS011;8993;51.822;-2.268;2022-08-11T13:00:26;1.25;;;0.41;;
17741;SDS011;8993;51.822;-2.268;2022-08-11T13:05:32;2.66;;;0.43;;
17741;SDS011;8993;51.822;-2.268;2022-08-11T13:10:36;1.33;;;0.44;;
17741;SDS011;8993;51.822;-2.268;2022-08-11T13:15:41;1.31;;;0.45;;
17741;SDS011;8993;51.822;-2.268;2022-08-11T13:20:45;1.78;;;0.47;;
17741;SDS011;8993;51.822;-2.268;2022-08-11T13:25:50;2.36;;;0.57;;
17741;SDS011;8993;51.822;-2.268;2022-08-11T13:30:54;1.66;;;0.55;;
17741;SDS011;8993;51.822;-2.268;2022-08-11T13:35:58;1.43;;;0.49;;
17741;SDS011;8993;51.822;-2.268;2022-08-11T13:41:02;2.28;;;0.49;;
17741;SDS011;8993;51.822;-2.268;2022-08-11T13:46:07;1.75;;;0.43;;
17741;SDS011;8993;51.822;-2.268;2022-08-11T13:51:11;2.17;;;0.55;;
17741;SDS011;8993;51.822;-2.268;2022-08-11T13:56:15;4.36;;;0.50;;
17741;SDS011;8993;51.822;-2.268;2022-08-11T14:01:19;1.63;;;0.54;;
17741;SDS011;8993;51.822;-2.268;2022-08-11T14:06:25;3.18;;;0.48;;
17741;SDS011;8993;51.822;-2.268;2022-08-11T14:11:29;1.74;;;0.38;;
17741;SDS011;8993;51.822;-2.268;2022-08-11T14:16:35;0.96;;;0.48;;
17741;SDS011;8993;51.822;-2.268;2022-08-11T14:26:45;2.16;;;0.51;;
17741;SDS011;8993;51.822;-2.268;2022-08-11T14:31:49;1.65;;;0.43;;
17741;SDS011;8993;51.822;-2.268;2022-08-11T14:36:54;2.88;;;0.48;;
17741;SDS011;8993;51.822;-2.268;2022-08-11T14:41:58;2.59;;;0.43;;
17741;SDS011;8993;51.822;-2.268;2022-08-11T14:47:02;1.32;;;0.44;;
17741;SDS011;8993;51.822;-2.268;2022-08-11T14:52:06;1.93;;;0.48;;
17741;SDS011;8993;51.822;-2.268;2022-08-11T14:57:10;2.66;;;0.55;;
17741;SDS011;8993;51.822;-2.268;2022-08-11T15:02:16;1.47;;;0.45;;
17741;SDS011;8993;51.822;-2.268;2022-08-11T15:07:20;1.97;;;0.43;;
17741;SDS011;8993;51.822;-2.268;2022-08-11T15:12:24;1.82;;;0.50;;
17741;SDS011;8993;51.822;-2.268;2022-08-11T15:17:28;1.63;;;0.48;;
17741;SDS011;8993;51.822;-2.268;2022-08-11T15:22:33;0.89;;;0.34;;
17741;SDS011;8993;51.822;-2.268;2022-08-11T15:27:37;0.40;;;0.30;;
17741;SDS011;8993;51.822;-2.268;2022-08-11T15:32:41;2.18;;;0.45;;
17741;SDS011;8993;51.822;-2.268;2022-08-11T15:37:46;1.48;;;0.40;;
17741;SDS011;8993;51.822;-2.268;2022-08-11T15:42:57;1.59;;;0.49;;
17741;SDS011;8993;51.822;-2.268;2022-08-11T15:47:55;1.24;;;0.46;;
17741;SDS011;8993;51.822;-2.268;2022-08-11T15:52:59;2.39;;;0.46;;
17741;SDS011;8993;51.822;-2.268;2022-08-11T15:58:04;1.72;;;0.52;;
17741;SDS011;8993;51.822;-2.268;2022-08-11T16:03:08;1.78;;;0.47;;
17741;SDS011;8993;51.822;-2.268;2022-08-11T16:08:13;3.25;;;0.47;;
17741;SDS011;8993;51.822;-2.268;2022-08-11T16:13:18;3.18;;;0.49;;
17741;SDS011;8993;51.822;-2.268;2022-08-11T16:18:23;1.24;;;0.47;;
17741;SDS011;8993;51.822;-2.268;2022-08-11T16:23:26;2.04;;;0.40;;
17741;SDS011;8993;51.822;-2.268;2022-08-11T16:28:31;1.17;;;0.39;;
17741;SDS011;8993;51.822;-2.268;2022-08-11T16:33:35;1.40;;;0.47;;
17741;SDS011;8993;51.822;-2.268;2022-08-11T16:38:39;0.91;;;0.42;;
17741;SDS011;8993;51.822;-2.268;2022-08-11T16:43:46;1.74;;;0.49;;
17741;SDS011;8993;51.822;-2.268;2022-08-11T16:48:50;1.81;;;0.53;;
17741;SDS011;8993;51.822;-2.268;2022-08-11T16:53:55;1.67;;;0.44;;
17741;SDS011;8993;51.822;-2.268;2022-08-11T16:59:00;1.30;;;0.52;;
17741;SDS011;8993;51.822;-2.268;2022-08-11T17:04:06;1.39;;;0.44;;
17741;SDS011;8993;51.822;-2.268;2022-08-11T17:09:08;1.67;;;0.51;;
17741;SDS011;8993;51.822;-2.268;2022-08-11T17:14:13;2.30;;;0.50;;
17741;SDS011;8993;51.822;-2.268;2022-08-11T17:19:19;1.39;;;0.54;;
17741;SDS011;8993;51.822;-2.268;2022-08-11T17:24:21;1.24;;;0.41;;
17741;SDS011;8993;51.822;-2.268;2022-08-11T17:29:28;1.89;;;0.61;;
17741;SDS011;8993;51.822;-2.268;2022-08-11T17:34:31;1.89;;;0.51;;
17741;SDS011;8993;51.822;-2.268;2022-08-11T17:39:35;2.93;;;0.69;;
17741;SDS011;8993;51.822;-2.268;2022-08-11T17:44:42;1.64;;;0.64;;
17741;SDS011;8993;51.822;-2.268;2022-08-11T17:49:46;3.52;;;0.63;;
17741;SDS011;8993;51.822;-2.268;2022-08-11T17:59:56;1.74;;;0.54;;
17741;SDS011;8993;51.822;-2.268;2022-08-11T18:05:00;1.57;;;0.62;;
17741;SDS011;8993;51.822;-2.268;2022-08-11T18:10:05;2.22;;;0.58;;
17741;SDS011;8993;51.822;-2.268;2022-08-11T18:15:09;2.95;;;0.59;;
17741;SDS011;8993;51.822;-2.268;2022-08-11T18:20:21;2.39;;;0.62;;
17741;SDS011;8993;51.822;-2.268;2022-08-11T18:25:16;2.00;;;0.69;;
17741;SDS011;8993;51.822;-2.268;2022-08-11T18:30:20;1.68;;;0.65;;
17741;SDS011;8993;51.822;-2.268;2022-08-11T18:35:24;2.92;;;0.69;;
17741;SDS011;8993;51.822;-2.268;2022-08-11T18:40:29;2.39;;;0.70;;
17741;SDS011;8993;51.822;-2.268;2022-08-11T18:45:33;1.65;;;0.78;;
17741;SDS011;8993;51.822;-2.268;2022-08-11T18:50:38;1.69;;;0.69;;
17741;SDS011;8993;51.822;-2.268;2022-08-11T18:55:42;2.90;;;0.70;;
17741;SDS011;8993;51.822;-2.268;2022-08-11T19:00:48;2.56;;;0.79;;
17741;SDS011;8993;51.822;-2.268;2022-08-11T19:05:53;2.93;;;0.71;;
17741;SDS011;8993;51.822;-2.268;2022-08-11T19:10:57;2.54;;;0.76;;
17741;SDS011;8993;51.822;-2.268;2022-08-11T19:16:01;1.61;;;0.73;;
17741;SDS011;8993;51.822;-2.268;2022-08-11T19:21:08;1.78;;;0.83;;
17741;SDS011;8993;51.822;-2.268;2022-08-11T19:26:12;1.35;;;0.79;;
17741;SDS011;8993;51.822;-2.268;2022-08-11T19:31:17;2.11;;;0.72;;
17741;SDS011;8993;51.822;-2.268;2022-08-11T19:36:21;1.55;;;0.64;;
17741;SDS011;8993;51.822;-2.268;2022-08-11T19:41:26;1.90;;;0.71;;
17741;SDS011;8993;51.822;-2.268;2022-08-11T19:46:30;2.67;;;0.92;;
17741;SDS011;8993;51.822;-2.268;2022-08-11T19:51:35;2.16;;;0.75;;
17741;SDS011;8993;51.822;-2.268;2022-08-11T19:56:39;2.43;;;0.74;;
17741;SDS011;8993;51.822;-2.268;2022-08-11T20:01:43;3.12;;;0.85;;
17741;SDS011;8993;51.822;-2.268;2022-08-11T20:06:47;1.89;;;0.83;;
17741;SDS011;8993;51.822;-2.268;2022-08-11T20:11:52;3.40;;;0.98;;
17741;SDS011;8993;51.822;-2.268;2022-08-11T20:16:56;2.73;;;1.03;;
17741;SDS011;8993;51.822;-2.268;2022-08-11T20:22:00;2.37;;;0.97;;
17741;SDS011;8993;51.822;-2.268;2022-08-11T20:27:14;2.76;;;0.93;;
17741;SDS011;8993;51.822;-2.268;2022-08-11T20:32:08;2.09;;;0.87;;
17741;SDS011;8993;51.822;-2.268;2022-08-11T20:37:12;4.21;;;0.98;;
17741;SDS011;8993;51.822;-2.268;2022-08-11T20:42:17;2.83;;;0.99;;
17741;SDS011;8993;51.822;-2.268;2022-08-11T20:47:22;2.01;;;0.90;;
17741;SDS011;8993;51.822;-2.268;2022-08-11T20:52:28;3.25;;;0.96;;
17741;SDS011;8993;51.822;-2.268;2022-08-11T20:57:32;2.15;;;1.17;;
17741;SDS011;8993;51.822;-2.268;2022-08-11T21:02:42;3.15;;;1.31;;
17741;SDS011;8993;51.822;-2.268;2022-08-11T21:07:37;3.97;;;1.37;;
17741;SDS011;8993;51.822;-2.268;2022-08-11T21:12:41;4.74;;;1.40;;
17741;SDS011;8993;51.822;-2.268;2022-08-11T21:17:45;3.72;;;1.45;;
17741;SDS011;8993;51.822;-2.268;2022-08-11T21:28:01;3.59;;;1.23;;
17741;SDS011;8993;51.822;-2.268;2022-08-11T21:33:02;3.34;;;1.19;;
17741;SDS011;8993;51.822;-2.268;2022-08-11T21:38:06;4.99;;;1.12;;
17741;SDS011;8993;51.822;-2.268;2022-08-11T21:43:10;2.83;;;1.04;;
17741;SDS011;8993;51.822;-2.268;2022-08-11T21:48:15;2.93;;;1.05;;
17741;SDS011;8993;51.822;-2.268;2022-08-11T21:53:21;3.14;;;1.26;;
17741;SDS011;8993;51.822;-2.268;2022-08-11T21:58:25;4.27;;;1.34;;
17741;SDS011;8993;51.822;-2.268;2022-08-11T22:03:30;2.87;;;1.18;;
17741;SDS011;8993;51.822;-2.268;2022-08-11T22:08:34;4.45;;;1.33;;
17741;SDS011;8993;51.822;-2.268;2022-08-11T22:13:39;4.22;;;1.27;;
17741;SDS011;8993;51.822;-2.268;2022-08-11T22:18:43;4.18;;;1.40;;
17741;SDS011;8993;51.822;-2.268;2022-08-11T22:23:49;5.97;;;1.50;;
17741;SDS011;8993;51.822;-2.268;2022-08-11T22:28:53;3.88;;;1.39;;
17741;SDS011;8993;51.822;-2.268;2022-08-11T22:33:58;3.95;;;1.29;;
17741;SDS011;8993;51.822;-2.268;2022-08-11T22:39:02;3.30;;;1.26;;
17741;SDS011;8993;51.822;-2.268;2022-08-11T22:44:08;1.71;;;1.16;;
17741;SDS011;8993;51.822;-2.268;2022-08-11T22:49:14;2.61;;;1.19;;
17741;SDS011;8993;51.822;-2.268;2022-08-11T22:54:18;3.23;;;1.37;;
17741;SDS011;8993;51.822;-2.268;2022-08-11T22:59:21;3.41;;;1.41;;
17741;SDS011;8993;51.822;-2.268;2022-08-11T23:04:26;4.49;;;1.51;;
17741;SDS011;8993;51.822;-2.268;2022-08-11T23:09:30;4.92;;;1.47;;
17741;SDS011;8993;51.822;-2.268;2022-08-11T23:14:34;3.13;;;1.50;;
17741;SDS011;8993;51.822;-2.268;2022-08-11T23:19:38;4.81;;;1.48;;
17741;SDS011;8993;51.822;-2.268;2022-08-11T23:24:43;4.95;;;1.65;;
17741;SDS011;8993;51.822;-2.268;2022-08-11T23:29:47;4.33;;;1.83;;
17741;SDS011;8993;51.822;-2.268;2022-08-11T23:34:53;6.28;;;1.96;;
17741;SDS011;8993;51.822;-2.268;2022-08-11T23:39:56;5.30;;;2.04;;
17741;SDS011;8993;51.822;-2.268;2022-08-11T23:45:00;5.29;;;2.03;;
17741;SDS011;8993;51.822;-2.268;2022-08-11T23:50:05;6.03;;;1.74;;
17741;SDS011;8993;51.822;-2.268;2022-08-11T23:55:08;4.17;;;1.45;;
